Time;durP1;ratioP1;P1;durP2;ratioP2;P2;SDS_P1;SDS_P2;PMS_P1;PMS_P2;Temp;Humidity;BMP_temperature;BMP_pressure;BME280_temperature;BME280_humidity;BME280_pressure;Samples;Min_cycle;Max_cycle;Signal;HPM_P1;HPM_P2
2021/08/14 00:01:07;;;;;;;36.03;26.98;;;25.30;99.90;;;;;;5054476;28;20031;-85
2021/08/14 00:03:35;;;;;;;33.65;26.27;;;25.30;99.90;;;;;;5056226;28;20119;-85
2021/08/14 00:06:01;;;;;;;39.88;28.33;;;25.30;99.90;;;;;;5072958;28;20036;-85
2021/08/14 00:08:27;;;;;;;36.97;26.77;;;25.30;99.90;;;;;;5071979;28;20028;-85
2021/08/14 00:10:52;;;;;;;32.97;26.63;;;25.30;99.90;;;;;;5071027;28;20539;-85
2021/08/14 00:13:18;;;;;;;35.13;26.95;;;25.30;99.90;;;;;;5071217;28;20484;-84
2021/08/14 00:15:44;;;;;;;33.33;26.23;;;25.30;99.90;;;;;;5054284;28;20386;-85
2021/08/14 00:18:10;;;;;;;36.90;28.20;;;25.30;99.90;;;;;;5054364;28;20028;-85
2021/08/14 00:20:35;;;;;;;37.47;28.20;;;25.30;99.90;;;;;;5037595;28;20161;-85
2021/08/14 00:23:01;;;;;;;37.97;27.98;;;25.30;99.90;;;;;;5070956;28;20145;-84
2021/08/14 00:25:27;;;;;;;36.42;27.42;;;25.30;99.90;;;;;;5072827;28;20028;-85
2021/08/14 00:27:53;;;;;;;38.08;27.92;;;25.30;99.90;;;;;;5071537;28;20540;-84
2021/08/14 00:30:19;;;;;;;35.47;27.20;;;25.30;99.90;;;;;;5072289;28;20029;-84
2021/08/14 00:32:44;;;;;;;38.38;28.30;;;25.30;99.90;;;;;;5070499;28;20071;-84
2021/08/14 00:35:10;;;;;;;35.95;27.25;;;25.30;99.90;;;;;;5070949;28;20056;-84
2021/08/14 00:37:36;;;;;;;33.75;26.52;;;25.30;99.90;;;;;;5070721;28;20025;-84
2021/08/14 00:40:03;;;;;;;36.53;26.95;;;25.30;99.90;;;;;;5054211;28;20032;-84
2021/08/14 00:42:29;;;;;;;36.47;27.13;;;25.30;99.90;;;;;;5072634;28;20039;-84
2021/08/14 00:44:55;;;;;;;34.85;26.80;;;25.30;99.90;;;;;;5070801;28;20044;-84
2021/08/14 00:47:25;;;;;;;37.22;27.70;;;25.30;99.90;;;;;;5071026;28;20039;-84
2021/08/14 00:49:51;;;;;;;36.00;27.33;;;25.30;99.90;;;;;;5054201;28;20036;-84
2021/08/14 00:52:17;;;;;;;35.65;28.05;;;25.30;99.90;;;;;;5070927;28;20032;-84
2021/08/14 00:54:42;;;;;;;33.95;26.55;;;25.30;99.90;;;;;;5070641;28;20387;-84
2021/08/14 00:57:08;;;;;;;35.92;27.20;;;25.30;99.90;;;;;;5072521;28;20323;-84
2021/08/14 00:59:34;;;;;;;35.22;26.77;;;25.30;99.90;;;;;;5053704;28;20028;-85
2021/08/14 01:02:03;;;;;;;32.80;25.77;;;25.30;99.90;;;;;;5038644;28;20036;-84
2021/08/14 01:04:30;;;;;;;35.70;27.17;;;25.30;99.90;;;;;;5053859;28;20117;-85
2021/08/14 01:06:56;;;;;;;33.80;26.27;;;25.30;99.90;;;;;;5070758;28;20485;-84
2021/08/14 01:09:22;;;;;;;31.42;25.33;;;25.30;99.90;;;;;;5070700;28;20052;-84
2021/08/14 01:11:49;;;;;;;33.28;26.30;;;25.30;99.90;;;;;;5055062;28;20094;-84
2021/08/14 01:14:15;;;;;;;34.42;26.45;;;25.30;99.90;;;;;;5070497;28;20031;-84
2021/08/14 01:16:42;;;;;;;33.67;26.10;;;25.30;99.90;;;;;;5073396;28;20029;-84
2021/08/14 01:19:08;;;;;;;31.55;25.13;;;25.30;99.90;;;;;;5042265;28;20032;-84
2021/08/14 01:21:34;;;;;;;35.80;25.80;;;25.30;99.90;;;;;;5073537;28;20547;-84
2021/08/14 01:24:03;;;;;;;33.97;26.83;;;25.30;99.90;;;;;;5075535;28;20021;-85
2021/08/14 01:26:30;;;;;;;31.27;25.17;;;25.30;99.90;;;;;;5075086;28;20032;-84
2021/08/14 01:28:56;;;;;;;33.00;25.35;;;25.30;99.90;;;;;;5074019;28;20486;-85
2021/08/14 01:31:22;;;;;;;32.70;24.83;;;25.30;99.90;;;;;;5075596;28;20115;-85
2021/08/14 01:33:48;;;;;;;32.15;24.67;;;25.30;99.90;;;;;;5058329;28;20037;-85
2021/08/14 01:36:17;;;;;;;32.00;24.25;;;25.30;99.90;;;;;;5073944;28;20112;-84
2021/08/14 01:38:51;;;;;;;30.27;23.13;;;25.30;99.90;;;;;;5073494;28;20024;-84
2021/08/14 01:41:18;;;;;;;32.70;25.35;;;25.30;99.90;;;;;;5074094;28;20394;-84
2021/08/14 01:43:54;;;;;;;31.90;25.08;;;25.30;99.90;;;;;;5056800;28;20033;-84
2021/08/14 01:46:19;;;;;;;33.28;24.25;;;25.30;99.90;;;;;;5057336;28;20056;-84
2021/08/14 01:48:45;;;;;;;30.67;23.98;;;25.30;99.90;;;;;;5056762;28;20056;-84
2021/08/14 01:51:11;;;;;;;29.02;22.50;;;25.30;99.90;;;;;;5057297;28;20494;-84
2021/08/14 01:53:36;;;;;;;31.35;23.52;;;25.30;99.90;;;;;;5073387;28;20032;-85
2021/08/14 01:56:02;;;;;;;29.63;23.05;;;25.30;99.90;;;;;;5056972;28;20411;-85
2021/08/14 01:58:28;;;;;;;28.92;22.42;;;25.30;99.90;;;;;;5073601;28;20031;-84
2021/08/14 02:00:53;;;;;;;29.55;22.30;;;25.30;99.90;;;;;;5039997;28;20531;-84
2021/08/14 02:03:19;;;;;;;30.92;22.95;;;25.30;99.90;;;;;;5040287;28;20044;-85
2021/08/14 02:05:45;;;;;;;30.05;22.13;;;25.30;99.90;;;;;;5056565;28;20063;-85
2021/08/14 02:08:11;;;;;;;27.90;21.80;;;25.30;99.90;;;;;;5056042;28;20399;-84
2021/08/14 02:10:37;;;;;;;28.38;22.30;;;25.30;99.90;;;;;;5055951;28;20367;-86
2021/08/14 02:13:03;;;;;;;29.45;21.42;;;25.30;99.90;;;;;;5073411;28;20035;-84
2021/08/14 02:15:28;;;;;;;28.17;21.33;;;25.30;99.90;;;;;;5058411;28;20034;-85
2021/08/14 02:17:54;;;;;;;29.08;21.65;;;25.30;99.90;;;;;;5056163;28;20517;-84
2021/08/14 02:20:20;;;;;;;26.92;21.92;;;25.30;99.90;;;;;;5073055;28;20446;-84
2021/08/14 02:22:45;;;;;;;26.25;20.55;;;25.30;99.90;;;;;;5072924;28;20060;-85
2021/08/14 02:25:11;;;;;;;27.00;20.75;;;25.30;99.90;;;;;;5074044;28;20360;-84
2021/08/14 02:27:37;;;;;;;27.48;21.05;;;25.30;99.90;;;;;;5074961;28;20032;-86
2021/08/14 02:30:06;;;;;;;28.92;21.60;;;25.30;99.90;;;;;;5072875;28;20036;-84
2021/08/14 02:32:31;;;;;;;24.77;19.30;;;25.30;99.90;;;;;;5073858;28;20032;-84
2021/08/14 02:34:57;;;;;;;24.63;19.65;;;25.30;99.90;;;;;;5055942;28;20043;-84
2021/08/14 02:37:23;;;;;;;29.35;21.20;;;25.30;99.90;;;;;;5056534;28;20029;-84
2021/08/14 02:39:48;;;;;;;25.27;19.38;;;25.30;99.90;;;;;;5073849;28;20047;-85
2021/08/14 02:42:14;;;;;;;26.50;19.92;;;25.30;99.90;;;;;;5073785;28;20032;-84
2021/08/14 02:44:40;;;;;;;25.98;19.85;;;25.30;99.90;;;;;;5039237;28;20024;-85
2021/08/14 02:47:05;;;;;;;29.30;19.70;;;25.30;99.90;;;;;;5039432;28;20040;-84
2021/08/14 02:49:31;;;;;;;25.98;20.48;;;25.30;99.90;;;;;;5056170;28;20028;-84
2021/08/14 02:51:57;;;;;;;25.52;19.50;;;25.30;99.90;;;;;;5073261;28;20543;-84
2021/08/14 02:54:22;;;;;;;24.83;18.70;;;25.30;99.90;;;;;;5072734;28;20028;-84
2021/08/14 02:56:48;;;;;;;28.88;19.60;;;25.30;99.90;;;;;;5039061;28;20032;-84
2021/08/14 02:59:14;;;;;;;24.30;18.80;;;25.30;99.90;;;;;;5075352;28;20020;-85
2021/08/14 03:01:39;;;;;;;25.23;19.40;;;25.30;99.90;;;;;;5073267;28;20070;-87
2021/08/14 03:04:05;;;;;;;27.77;19.42;;;25.30;99.90;;;;;;5072355;28;20028;-85
2021/08/14 03:06:30;;;;;;;25.33;18.17;;;25.30;99.90;;;;;;5039140;28;20427;-84
2021/08/14 03:08:59;;;;;;;27.42;18.90;;;25.30;99.90;;;;;;5055210;28;20056;-84
2021/08/14 03:11:25;;;;;;;24.63;18.17;;;25.30;99.90;;;;;;5072240;28;20094;-84
2021/08/14 03:13:50;;;;;;;24.42;18.02;;;25.30;99.90;;;;;;5071853;28;20425;-84
2021/08/14 03:16:16;;;;;;;24.10;17.67;;;25.30;99.90;;;;;;5072398;28;20040;-84
2021/08/14 03:18:42;;;;;;;24.23;17.55;;;25.30;99.90;;;;;;5062283;28;20025;-87
2021/08/14 03:21:08;;;;;;;22.75;17.95;;;25.30;99.90;;;;;;5071641;28;20053;-84
2021/08/14 03:23:33;;;;;;;25.33;17.52;;;25.30;99.90;;;;;;5038727;28;20075;-84
2021/08/14 03:26:00;;;;;;;25.77;17.85;;;25.30;99.90;;;;;;5072010;28;20048;-84
2021/08/14 03:28:26;;;;;;;24.83;17.02;;;25.30;99.90;;;;;;5071884;28;20089;-84
2021/08/14 03:30:51;;;;;;;23.38;16.80;;;25.30;99.90;;;;;;5054727;28;20025;-84
2021/08/14 03:33:17;;;;;;;20.70;16.45;;;25.30;99.90;;;;;;5038589;28;20032;-84
2021/08/14 03:35:43;;;;;;;22.00;16.80;;;25.30;99.90;;;;;;5055351;28;20396;-86
2021/08/14 03:38:08;;;;;;;22.15;16.75;;;25.30;99.90;;;;;;5071166;28;20115;-84
2021/08/14 03:40:34;;;;;;;21.65;16.75;;;25.30;99.90;;;;;;5075421;28;20037;-85
2021/08/14 03:42:59;;;;;;;23.23;16.55;;;25.30;99.90;;;;;;5054649;28;20039;-85
2021/08/14 03:45:25;;;;;;;24.52;17.08;;;25.30;99.90;;;;;;5071877;28;20041;-84
2021/08/14 03:47:51;;;;;;;22.15;16.42;;;25.30;99.90;;;;;;5038119;28;20032;-85
2021/08/14 03:50:16;;;;;;;20.90;16.30;;;25.30;99.90;;;;;;5056111;28;20407;-85
2021/08/14 03:52:42;;;;;;;22.45;16.45;;;25.30;99.90;;;;;;5054880;28;20037;-84
2021/08/14 03:55:09;;;;;;;20.40;15.55;;;25.30;99.90;;;;;;5037891;28;20106;-84
2021/08/14 03:57:34;;;;;;;22.40;15.55;;;25.30;99.90;;;;;;5071298;28;20340;-84
2021/08/14 04:00:00;;;;;;;20.80;15.65;;;25.30;99.90;;;;;;5071199;28;20039;-84
2021/08/14 04:02:26;;;;;;;21.30;15.18;;;25.30;99.90;;;;;;5071081;28;20356;-84
2021/08/14 04:04:52;;;;;;;20.25;15.02;;;25.30;99.90;;;;;;5054450;28;20063;-85
2021/08/14 04:07:18;;;;;;;22.05;15.18;;;25.30;99.90;;;;;;5071297;28;20029;-84
2021/08/14 04:09:44;;;;;;;20.40;14.77;;;25.30;99.90;;;;;;5071677;28;20480;-84
2021/08/14 04:12:09;;;;;;;20.05;14.82;;;25.30;99.90;;;;;;5037577;28;20061;-84
2021/08/14 04:14:36;;;;;;;18.10;15.07;;;25.30;99.90;;;;;;5037937;28;20028;-84
2021/08/14 04:17:02;;;;;;;21.88;15.30;;;25.30;99.90;;;;;;5070521;28;20028;-84
2021/08/14 04:19:28;;;;;;;19.23;14.65;;;25.30;99.90;;;;;;5056394;28;20086;-85
2021/08/14 04:21:56;;;;;;;24.08;15.13;;;25.30;99.90;;;;;;5055564;28;20057;-84
2021/08/14 04:24:21;;;;;;;20.35;14.45;;;25.30;99.90;;;;;;5071249;28;20131;-84
2021/08/14 04:26:47;;;;;;;19.83;14.10;;;25.30;99.90;;;;;;5071194;28;20031;-84
2021/08/14 04:29:13;;;;;;;20.08;14.35;;;25.30;99.90;;;;;;5057465;28;20481;-84
2021/08/14 04:31:39;;;;;;;20.70;13.63;;;25.30;99.90;;;;;;5054609;28;20123;-84
2021/08/14 04:34:04;;;;;;;17.92;13.38;;;25.30;99.90;;;;;;5070716;28;20021;-84
2021/08/14 04:36:30;;;;;;;18.85;13.88;;;25.30;99.90;;;;;;5071074;28;20028;-84
2021/08/14 04:38:56;;;;;;;16.83;12.98;;;25.30;99.90;;;;;;5054008;28;20029;-84
2021/08/14 04:41:22;;;;;;;16.65;12.40;;;25.30;99.90;;;;;;5054266;28;20505;-84
2021/08/14 04:43:48;;;;;;;17.08;13.02;;;25.30;99.90;;;;;;5054326;28;20032;-84
2021/08/14 04:46:13;;;;;;;16.75;12.43;;;25.30;99.90;;;;;;5037288;28;20482;-85
2021/08/14 04:48:39;;;;;;;14.88;12.20;;;25.30;99.90;;;;;;5054175;28;20466;-84
2021/08/14 04:51:04;;;;;;;17.20;11.88;;;25.30;99.90;;;;;;5056858;28;20043;-84
2021/08/14 04:53:30;;;;;;;17.00;12.60;;;25.30;99.90;;;;;;5058360;28;20029;-84
2021/08/14 04:55:56;;;;;;;15.85;12.18;;;25.30;99.90;;;;;;5057902;28;20025;-85
2021/08/14 04:58:21;;;;;;;17.42;12.32;;;25.30;99.90;;;;;;5062033;28;20032;-84
2021/08/14 05:00:47;;;;;;;17.70;11.82;;;25.30;99.90;;;;;;5041365;28;20470;-84
2021/08/14 05:03:13;;;;;;;16.17;11.82;;;25.30;99.90;;;;;;5057597;28;20827;-83
2021/08/14 05:05:39;;;;;;;16.23;12.23;;;25.30;99.90;;;;;;5057880;28;20029;-84
2021/08/14 05:08:05;;;;;;;15.95;11.75;;;25.30;99.90;;;;;;5074206;28;20169;-83
2021/08/14 05:10:31;;;;;;;16.08;11.35;;;25.30;99.90;;;;;;5057966;28;20187;-83
2021/08/14 05:12:56;;;;;;;15.82;10.95;;;25.30;99.90;;;;;;5057906;28;20036;-85
2021/08/14 05:15:22;;;;;;;17.98;11.85;;;25.30;99.90;;;;;;5075083;28;20119;-84
2021/08/14 05:17:48;;;;;;;16.35;10.90;;;25.30;99.90;;;;;;5076011;28;20031;-84
2021/08/14 05:20:13;;;;;;;17.08;11.20;;;25.30;99.90;;;;;;5041316;28;20040;-84
2021/08/14 05:22:39;;;;;;;14.40;10.20;;;25.30;99.90;;;;;;5063032;28;20054;-84
2021/08/14 05:25:05;;;;;;;16.30;11.75;;;25.30;99.90;;;;;;5074052;28;20040;-84
2021/08/14 05:27:31;;;;;;;14.05;10.45;;;25.30;99.90;;;;;;5057389;28;20116;-83
2021/08/14 05:29:56;;;;;;;15.52;11.27;;;25.30;99.90;;;;;;5057316;28;20537;-88
2021/08/14 05:32:22;;;;;;;16.00;11.80;;;25.30;99.90;;;;;;5076097;28;20032;-84
2021/08/14 05:34:48;;;;;;;17.33;11.63;;;25.30;99.90;;;;;;5074121;28;20055;-83
2021/08/14 05:37:13;;;;;;;14.95;11.27;;;25.30;99.90;;;;;;5073830;28;20036;-84
2021/08/14 05:39:39;;;;;;;17.88;11.30;;;25.30;99.90;;;;;;5073785;28;20082;-83
2021/08/14 05:42:05;;;;;;;16.48;11.30;;;25.30;99.90;;;;;;5056781;28;20097;-85
2021/08/14 05:44:30;;;;;;;16.33;11.25;;;25.30;99.90;;;;;;5074891;28;20047;-84
2021/08/14 05:46:58;;;;;;;17.50;11.70;;;25.30;99.90;;;;;;5075605;28;20128;-85
2021/08/14 05:49:24;;;;;;;15.70;11.25;;;25.30;99.90;;;;;;5073663;28;20029;-84
2021/08/14 05:51:49;;;;;;;16.73;11.73;;;25.30;99.90;;;;;;5073732;28;20032;-84
2021/08/14 05:54:16;;;;;;;15.50;11.32;;;25.30;99.90;;;;;;5056878;28;20363;-85
2021/08/14 05:56:42;;;;;;;16.02;11.63;;;25.30;99.90;;;;;;5073825;28;20060;-83
2021/08/14 05:59:07;;;;;;;17.25;12.52;;;25.30;99.90;;;;;;5074207;28;20459;-83
2021/08/14 06:01:33;;;;;;;20.67;13.60;;;25.30;99.90;;;;;;5076824;28;20040;-85
2021/08/14 06:03:59;;;;;;;22.38;15.20;;;25.30;99.90;;;;;;5073537;28;20028;-84
2021/08/14 06:06:24;;;;;;;22.08;16.23;;;25.30;99.90;;;;;;5073340;28;20478;-84
2021/08/14 06:08:50;;;;;;;22.48;16.27;;;25.30;99.90;;;;;;5073428;28;20098;-85
2021/08/14 06:11:16;;;;;;;24.17;16.77;;;25.30;99.90;;;;;;5077244;28;20074;-84
2021/08/14 06:13:42;;;;;;;24.60;15.95;;;25.30;99.90;;;;;;5073322;28;20028;-85
2021/08/14 06:16:10;;;;;;;19.40;13.13;;;25.30;99.90;;;;;;5072732;28;20448;-84
2021/08/14 06:18:40;;;;;;;20.27;12.45;;;25.30;99.90;;;;;;5062226;28;20044;-85
2021/08/14 06:21:09;;;;;;;17.63;11.73;;;25.30;99.90;;;;;;5057294;28;20045;-85
2021/08/14 06:23:35;;;;;;;17.30;9.88;;;25.30;99.90;;;;;;5057178;28;20037;-85
2021/08/14 06:26:01;;;;;;;19.48;10.23;;;25.30;99.90;;;;;;5039769;28;20031;-84
2021/08/14 06:28:26;;;;;;;17.25;9.55;;;25.30;99.90;;;;;;5076004;28;20025;-84
2021/08/14 06:30:52;;;;;;;13.45;7.90;;;25.30;99.90;;;;;;5039653;28;20035;-84
2021/08/14 06:33:18;;;;;;;13.32;7.80;;;25.40;99.90;;;;;;5055992;28;20490;-85
2021/08/14 06:35:43;;;;;;;12.70;7.10;;;25.30;99.90;;;;;;5073067;28;20033;-84
2021/08/14 06:38:09;;;;;;;14.65;7.75;;;25.30;99.90;;;;;;5072715;28;20029;-84
2021/08/14 06:40:34;;;;;;;12.75;6.80;;;25.30;99.90;;;;;;5072757;28;20036;-84
2021/08/14 06:43:00;;;;;;;13.80;6.60;;;25.30;99.90;;;;;;5077486;28;20043;-85
2021/08/14 06:45:26;;;;;;;12.70;6.13;;;25.30;99.90;;;;;;5055856;28;20060;-85
2021/08/14 06:47:52;;;;;;;13.23;6.50;;;25.30;99.90;;;;;;5072370;28;20029;-85
2021/08/14 06:50:18;;;;;;;13.55;6.47;;;25.30;99.90;;;;;;5039336;28;20031;-85
2021/08/14 06:52:44;;;;;;;15.15;5.95;;;25.40;99.90;;;;;;5070841;28;20024;-85
2021/08/14 06:55:10;;;;;;;12.10;6.40;;;25.40;99.90;;;;;;5055441;28;20035;-85
2021/08/14 06:57:36;;;;;;;11.93;5.45;;;25.40;99.90;;;;;;5072570;28;20397;-84
2021/08/14 07:00:04;;;;;;;9.25;5.43;;;25.40;99.90;;;;;;5055802;28;20177;-84
2021/08/14 07:02:29;;;;;;;12.63;6.25;;;25.30;99.90;;;;;;5069126;28;20363;-84
2021/08/14 07:04:55;;;;;;;14.48;6.40;;;25.40;99.90;;;;;;5039136;28;20093;-84
2021/08/14 07:07:21;;;;;;;11.48;5.60;;;25.40;99.90;;;;;;5071862;28;20055;-84
2021/08/14 07:09:46;;;;;;;12.80;6.15;;;25.40;99.90;;;;;;5072333;28;20043;-84
2021/08/14 07:12:14;;;;;;;13.07;6.13;;;25.40;99.90;;;;;;5038121;28;20347;-84
2021/08/14 07:14:40;;;;;;;13.07;6.30;;;25.30;99.90;;;;;;5055485;28;20032;-83
2021/08/14 07:17:06;;;;;;;11.73;5.72;;;25.40;99.90;;;;;;5059853;28;20104;-84
2021/08/14 07:19:32;;;;;;;11.38;6.15;;;25.40;99.90;;;;;;5072861;28;20031;-85
2021/08/14 07:21:57;;;;;;;11.82;6.05;;;25.30;99.90;;;;;;5054536;28;20075;-84
2021/08/14 07:24:23;;;;;;;11.88;5.78;;;25.40;99.90;;;;;;5055257;28;20035;-85
2021/08/14 07:26:51;;;;;;;11.48;5.85;;;25.40;99.90;;;;;;5038721;28;20116;-86
2021/08/14 07:29:17;;;;;;;12.65;5.40;;;25.40;99.90;;;;;;5072903;28;20035;-85
2021/08/14 07:31:43;;;;;;;13.32;5.82;;;25.40;99.90;;;;;;5038751;28;20116;-84
2021/08/14 07:34:09;;;;;;;13.48;6.57;;;25.40;99.90;;;;;;5055061;28;20055;-85
2021/08/14 07:36:35;;;;;;;10.10;5.22;;;25.40;99.90;;;;;;5038212;28;20431;-85
2021/08/14 07:39:00;;;;;;;10.13;5.75;;;25.40;99.90;;;;;;5070108;28;20402;-85
2021/08/14 07:41:26;;;;;;;11.52;5.22;;;25.40;99.90;;;;;;5037909;28;20024;-85
2021/08/14 07:43:51;;;;;;;10.13;5.40;;;25.40;99.90;;;;;;5043450;28;20062;-85
2021/08/14 07:46:17;;;;;;;10.68;5.57;;;25.40;99.90;;;;;;5057160;28;20028;-85
2021/08/14 07:48:43;;;;;;;12.85;5.53;;;25.30;99.90;;;;;;5059304;28;20039;-85
2021/08/14 07:51:08;;;;;;;15.73;6.20;;;25.30;99.90;;;;;;5075344;28;20036;-85
2021/08/14 07:53:34;;;;;;;11.95;5.38;;;25.30;99.90;;;;;;5070921;28;20039;-85
2021/08/14 07:56:00;;;;;;;9.93;5.25;;;25.30;99.90;;;;;;5071500;28;20444;-85
2021/08/14 07:58:25;;;;;;;10.43;5.78;;;25.30;99.90;;;;;;5054268;28;20527;-85
2021/08/14 08:00:51;;;;;;;11.82;5.68;;;25.30;99.90;;;;;;5071557;28;20025;-85
2021/08/14 08:03:17;;;;;;;10.02;5.32;;;25.30;99.90;;;;;;5072211;28;20040;-85
2021/08/14 08:05:42;;;;;;;13.23;5.50;;;25.30;99.90;;;;;;5055578;28;20132;-85
2021/08/14 08:08:08;;;;;;;10.93;5.03;;;25.30;99.90;;;;;;5057408;28;20385;-87
2021/08/14 08:10:34;;;;;;;10.68;5.40;;;25.30;99.90;;;;;;5054237;28;20029;-85
2021/08/14 08:13:01;;;;;;;11.40;5.55;;;25.30;99.90;;;;;;5071540;28;20478;-85
2021/08/14 08:15:27;;;;;;;13.52;5.95;;;25.30;99.90;;;;;;5071095;28;20024;-85
2021/08/14 08:17:52;;;;;;;12.55;5.75;;;25.30;99.90;;;;;;5055037;28;20528;-87
2021/08/14 08:20:19;;;;;;;14.48;6.30;;;25.30;99.90;;;;;;5037337;28;20059;-86
2021/08/14 08:22:46;;;;;;;12.90;6.00;;;25.30;99.90;;;;;;5070972;28;20414;-85
2021/08/14 08:25:13;;;;;;;14.10;6.68;;;25.30;99.90;;;;;;5077300;28;20035;-85
2021/08/14 08:27:43;;;;;;;12.68;5.93;;;25.30;99.90;;;;;;5077481;28;20050;-87
2021/08/14 08:30:10;;;;;;;11.68;5.55;;;25.30;99.90;;;;;;5077871;28;20027;-87
2021/08/14 08:32:39;;;;;;;13.23;6.05;;;25.40;99.90;;;;;;5079677;28;20042;-85
2021/08/14 08:35:06;;;;;;;10.30;5.47;;;25.40;99.90;;;;;;5087080;28;20025;-86
2021/08/14 08:37:35;;;;;;;12.70;5.88;;;25.40;99.90;;;;;;5077916;28;20096;-87
2021/08/14 08:40:01;;;;;;;10.60;5.65;;;25.40;99.90;;;;;;5063382;28;20032;-88
2021/08/14 08:42:27;;;;;;;10.90;4.95;;;25.40;99.90;;;;;;5078805;28;20085;-88
2021/08/14 08:44:52;;;;;;;11.05;4.90;;;25.40;99.90;;;;;;5078892;28;20367;-88
2021/08/14 08:47:18;;;;;;;9.50;4.95;;;25.40;99.90;;;;;;5060795;28;20029;-89
2021/08/14 08:49:55;;;;;;;12.77;5.20;;;25.40;99.90;;;;;;5060955;28;20029;-88
2021/08/14 08:52:22;;;;;;;11.93;5.10;;;25.40;99.90;;;;;;5080711;28;20074;-88
2021/08/14 08:54:49;;;;;;;10.45;4.82;;;25.40;99.90;;;;;;5060816;28;20088;-87
2021/08/14 08:57:15;;;;;;;9.52;4.97;;;25.40;99.90;;;;;;5059995;28;20028;-87
2021/08/14 08:59:43;;;;;;;9.25;4.93;;;25.40;99.90;;;;;;5077622;28;20029;-88
2021/08/14 09:02:32;;;;;;;9.45;4.80;;;25.40;99.90;;;;;;5083693;28;20035;-88
2021/08/14 09:05:21;;;;;;;13.18;5.80;;;25.40;99.90;;;;;;5077534;28;20035;-87
2021/08/14 09:07:52;;;;;;;8.57;4.88;;;25.40;99.90;;;;;;5077429;28;20024;-87
2021/08/14 09:10:28;;;;;;;7.97;5.07;;;25.40;99.90;;;;;;5067824;28;20029;-87
2021/08/14 09:12:54;;;;;;;8.25;4.88;;;25.40;99.90;;;;;;5077361;28;20115;-87
2021/08/14 09:15:34;;;;;;;9.38;5.05;;;25.50;99.90;;;;;;5078813;28;20497;-87
2021/08/14 09:18:03;;;;;;;13.48;5.18;;;25.50;99.90;;;;;;5078706;28;20029;-87
2021/08/14 09:20:29;;;;;;;11.27;5.65;;;25.50;99.90;;;;;;5077266;28;20021;-87
2021/08/14 09:23:10;;;;;;;9.90;4.78;;;25.50;99.90;;;;;;5077327;28;20044;-87
2021/08/14 09:25:42;;;;;;;10.95;5.07;;;25.50;99.90;;;;;;5077535;28;20025;-87
2021/08/14 09:28:09;;;;;;;11.35;5.07;;;25.50;99.90;;;;;;5078617;28;20079;-86
2021/08/14 09:30:58;;;;;;;7.90;4.22;;;25.60;99.90;;;;;;5076869;28;20035;-87
2021/08/14 09:33:26;;;;;;;8.35;4.70;;;25.50;99.90;;;;;;5077021;28;20093;-87
2021/08/14 09:36:00;;;;;;;8.85;4.95;;;25.60;99.90;;;;;;5076108;28;20028;-86
2021/08/14 09:38:43;;;;;;;11.57;5.50;;;25.60;99.90;;;;;;5078172;28;20040;-86
2021/08/14 09:41:20;;;;;;;9.40;5.00;;;25.60;99.90;;;;;;5075312;28;20097;-86
2021/08/14 09:43:48;;;;;;;6.85;4.40;;;25.60;99.90;;;;;;5073387;28;20115;-86
2021/08/14 09:46:14;;;;;;;8.00;4.40;;;25.60;99.90;;;;;;5073891;28;20016;-87
2021/08/14 09:48:41;;;;;;;9.82;4.43;;;25.60;99.90;;;;;;5072821;28;20048;-85
2021/08/14 09:51:31;;;;;;;8.90;4.43;;;25.50;99.90;;;;;;5059565;28;20146;-86
2021/08/14 09:53:58;;;;;;;9.95;5.03;;;25.50;99.90;;;;;;5073866;28;20098;-85
2021/08/14 09:56:26;;;;;;;12.52;4.63;;;25.50;99.90;;;;;;5073696;28;20386;-85
2021/08/14 09:58:53;;;;;;;10.75;4.85;;;25.50;99.90;;;;;;5074864;28;20020;-86
2021/08/14 10:01:19;;;;;;;9.45;4.70;;;25.50;99.90;;;;;;5057126;28;20043;-85
2021/08/14 10:03:46;;;;;;;10.30;4.90;;;25.40;99.90;;;;;;5072967;28;20550;-86
2021/08/14 10:06:13;;;;;;;12.20;6.07;;;25.40;99.90;;;;;;5073465;28;20024;-85
2021/08/14 10:08:40;;;;;;;11.00;5.35;;;25.50;99.90;;;;;;5078468;28;20036;-86
2021/08/14 10:11:11;;;;;;;9.90;4.82;;;25.50;99.90;;;;;;5073215;28;20029;-86
2021/08/14 10:13:47;;;;;;;10.95;4.68;;;25.50;99.90;;;;;;5073156;28;20095;-86
2021/08/14 10:16:14;;;;;;;9.60;5.43;;;25.50;99.90;;;;;;5041033;28;20035;-86
2021/08/14 10:18:41;;;;;;;10.18;5.22;;;25.50;99.90;;;;;;5056195;28;20127;-86
2021/08/14 10:21:08;;;;;;;8.77;5.03;;;25.50;99.90;;;;;;5063746;28;20031;-86
2021/08/14 10:23:34;;;;;;;9.55;4.97;;;25.50;99.90;;;;;;5102251;28;20096;-86
2021/08/14 10:26:07;;;;;;;11.80;5.50;;;25.50;99.90;;;;;;5099149;28;20458;-86
2021/08/14 10:28:58;;;;;;;8.20;4.93;;;25.50;99.80;;;;;;5094809;28;20020;-86
2021/08/14 10:31:47;;;;;;;10.85;5.07;;;25.50;99.60;;;;;;5065615;28;20477;-86
2021/08/14 10:34:12;;;;;;;11.07;5.00;;;25.50;99.60;;;;;;5094301;28;20103;-86
2021/08/14 10:36:43;;;;;;;9.07;4.60;;;25.60;99.50;;;;;;5076068;28;20059;-86
2021/08/14 10:39:16;;;;;;;10.90;4.70;;;25.60;99.40;;;;;;5080732;28;20504;-85
2021/08/14 10:41:43;;;;;;;12.53;5.00;;;25.60;99.40;;;;;;5079172;28;20042;-86
2021/08/14 10:44:10;;;;;;;12.70;4.95;;;25.60;99.40;;;;;;5095020;28;20020;-85
2021/08/14 10:46:44;;;;;;;9.15;4.38;;;25.60;99.30;;;;;;5093777;28;20024;-85
2021/08/14 10:49:31;;;;;;;8.68;4.88;;;25.60;99.30;;;;;;5075218;28;20084;-85
2021/08/14 10:52:03;;;;;;;10.65;4.90;;;25.60;99.30;;;;;;5094211;28;20089;-85
2021/08/14 10:54:28;;;;;;;9.52;4.57;;;25.60;99.30;;;;;;5093756;28;20478;-85
2021/08/14 10:57:08;;;;;;;7.28;4.53;;;25.60;99.20;;;;;;5074994;28;20077;-84
2021/08/14 10:59:37;;;;;;;7.75;4.40;;;25.60;99.20;;;;;;5075488;28;20373;-85
2021/08/14 11:02:23;;;;;;;8.55;4.15;;;25.60;99.30;;;;;;5075810;28;20032;-84
2021/08/14 11:04:57;;;;;;;9.23;4.90;;;25.60;99.30;;;;;;5061828;28;20398;-85
2021/08/14 11:07:23;;;;;;;;;;;25.60;99.30;;;;;;5094403;28;20074;-85
2021/08/14 11:09:54;;;;;;;9.30;4.70;;;25.60;99.30;;;;;;5075098;28;19904;-85
2021/08/14 11:12:42;;;;;;;8.45;4.65;;;25.60;99.30;;;;;;5075717;28;20028;-85
2021/08/14 11:15:16;;;;;;;7.45;4.47;;;25.50;99.30;;;;;;5075332;28;20073;-85
2021/08/14 11:17:44;;;;;;;7.45;4.65;;;25.50;99.20;;;;;;5075182;28;20028;-84
2021/08/14 11:20:19;;;;;;;8.65;4.57;;;25.50;99.20;;;;;;5093754;28;20028;-84
2021/08/14 11:22:52;;;;;;;8.88;5.10;;;25.50;99.20;;;;;;5093192;28;20048;-85
2021/08/14 11:25:27;;;;;;;9.38;5.10;;;25.50;99.10;;;;;;5075240;28;20073;-85
2021/08/14 11:27:58;;;;;;;7.43;4.45;;;25.50;99.10;;;;;;5074998;28;20020;-84
2021/08/14 11:30:26;;;;;;;8.55;4.75;;;25.50;99.00;;;;;;5075669;28;20028;-85
2021/08/14 11:32:53;;;;;;;9.32;4.50;;;25.50;99.00;;;;;;5074732;28;20028;-84
2021/08/14 11:35:23;;;;;;;8.25;3.85;;;25.50;99.00;;;;;;5093186;28;20032;-84
2021/08/14 11:37:49;;;;;;;7.88;4.47;;;25.50;98.90;;;;;;5080281;28;20044;-85
2021/08/14 11:40:18;;;;;;;9.20;4.65;;;25.50;98.90;;;;;;5092943;28;20070;-84
2021/08/14 11:42:56;;;;;;;9.48;4.88;;;25.50;98.90;;;;;;5073857;28;20501;-85
2021/08/14 11:45:22;;;;;;;7.00;3.90;;;25.40;99.00;;;;;;5074976;28;20024;-84
2021/08/14 11:47:59;;;;;;;8.40;4.38;;;25.40;99.10;;;;;;5045948;28;20031;-84
2021/08/14 11:50:32;;;;;;;6.00;4.20;;;25.40;99.10;;;;;;5093180;28;20081;-84
2021/08/14 11:52:57;;;;;;;7.80;4.25;;;25.40;99.10;;;;;;5074406;28;20032;-84
2021/08/14 11:55:23;;;;;;;7.60;4.30;;;25.40;99.10;;;;;;5061868;28;20028;-83
2021/08/14 11:57:51;;;;;;;6.43;4.15;;;25.40;99.20;;;;;;5074428;28;20035;-84
2021/08/14 12:00:17;;;;;;;5.25;3.67;;;25.40;99.20;;;;;;5074304;28;20031;-84
2021/08/14 12:02:46;;;;;;;6.38;3.72;;;25.40;99.20;;;;;;5092452;28;20039;-83
2021/08/14 12:05:12;;;;;;;7.72;4.00;;;25.40;99.20;;;;;;5041999;28;20089;-84
2021/08/14 12:07:44;;;;;;;7.20;4.50;;;25.40;99.20;;;;;;5073921;28;20020;-84
2021/08/14 12:10:10;;;;;;;5.95;3.92;;;25.40;99.10;;;;;;5082117;28;20131;-82
2021/08/14 12:12:36;;;;;;;7.50;4.40;;;25.40;99.20;;;;;;5061158;28;20043;-84
2021/08/14 12:15:12;;;;;;;9.95;4.97;;;25.50;99.20;;;;;;5074258;28;20130;-84
2021/08/14 12:17:42;;;;;;;9.73;5.18;;;25.40;99.10;;;;;;5101802;28;20047;-84
2021/08/14 12:20:08;;;;;;;8.07;4.50;;;25.50;99.10;;;;;;5085546;28;20107;-83
2021/08/14 12:22:35;;;;;;;11.70;5.47;;;25.50;99.00;;;;;;5045161;28;20138;-84
2021/08/14 12:25:21;;;;;;;9.98;4.90;;;25.50;98.90;;;;;;5072894;28;20028;-84
2021/08/14 12:27:46;;;;;;;10.23;5.22;;;25.50;98.80;;;;;;5110205;28;20023;-84
2021/08/14 12:30:18;;;;;;;6.38;4.78;;;25.50;98.70;;;;;;5090329;28;20072;-84
2021/08/14 12:32:45;;;;;;;9.60;4.90;;;25.50;98.70;;;;;;5077766;28;20039;-84
2021/08/14 12:35:22;;;;;;;7.20;5.00;;;25.50;98.70;;;;;;5067527;28;20029;-84